Terminal Aerodrome Forecast
Issued by NWS Austin/San Antonio, TX

Home | Current Version | Previous Version | Text Only | Print | Product List | Glossary On
Versions: 1 2 3 4 5 6 7 8 9 10 11 12 13 14 15 16 17 18 19 20 21 22 23
000
FTUS44 KEWX 170700 AAB
TAFAUS
TAF AMD
KAUS 170742Z 1708/1812 17005KT P6SM BKN005 OVC015
     FM171400 10005KT P6SM -SHRA BKN010 BKN040
     FM171800 15010KT P6SM -SHRA BKN025 BKN050 PROB30 1718/1724 5SM
      TSRA BKN040CB
     FM180300 12007KT 6SM -TSRA BR BKN008CB OVC040=

USA.gov is the U.S. government's official web portal to all federal, state and local government web resources and services.